Hlavní strana
METAR-TAF:

METAR-TAF

Letiště :

Moroni, Komory

zeměpisná šířka: 11-32S, zeměpisná délka: 043-16E, výška: 29 m

Aktuální stav počasí

Zpráva byla vytvořena před 58 minutami, v 10:00 UTC
Východojihovýchodní vítr 17 kt
Teplota 34°C
Vlhkost vzduchu 44%
Tlak 1012 hPa
Viditelnost 10 km a více
Skoro jasno ve výšce 2000 ft, Vertikální cumulus.

METAR: FMCH 221000Z 11017KT 9999 FEW020TCU 34/20 Q1012 NOSIG

Čas: 13:58 (10:58 UTC)

Předpověď počasí

Zpráva byla vytvořena před 5 hodinami a 58 minutami, v 05:00 UTC
Předpověď platná od 22 v 06 UTC do 23 v 12 UTC
Východojihovýchodní vítr 12 kt
Viditelnost 10 km a více
Skoro jasno ve výšce 2000 ft
Pravděpodobnost 30% :
Dočasný
od 22 v 11 UTC do 22 v 15 UTC
Viditelnost: 4500 m
dešťové přeháňky
Pravděpodobnost 30% :
Dočasný
od 22 v 07 UTC do 22 v 13 UTC
Jihozápadní vítr 12 kt

TAF: FMCH 220500Z 2206/2312 12012KT 9999 FEW020 PROB30 TEMPO 2211/2215 4500 SHRA PROB30 TEMPO 2207/2213 22012KT

Stav a předpovědi počasí z více než 4 000 letišť (zprávy METAR a TAF).

Červené a žluté tečky na mapě představují dostupné meteorologické stanice.

Když kurzor umístíte na tečku, zobrazí se název stanice.

Pak kliknutím zobrazíte stav a předpověď počasí.

Chcete-li změnit mapu, kliknutím na zelené tlačítko se znaménkem +mapu přiblížíte, kliknutím na zelené tlačítko se znaménkem – mapu oddálíte a kliknutím na zelené šipky přejdete na sousední mapy.


METAR-TAF: